Time;durP1;ratioP1;P1;durP2;ratioP2;P2;SDS_P1;SDS_P2;PMS_P1;PMS_P2;Temp;Humidity;BMP_temperature;BMP_pressure;BME280_temperature;BME280_humidity;BME280_pressure;Samples;Min_cycle;Max_cycle;Signal;HPM_P1;HPM_P2
2023/05/16 00:00:47;;;;;;;8.20;7.60;;;;;;;9.91;100.00;95864.38;7431910;19;20444;-76
2023/05/16 00:03:14;;;;;;;8.63;7.90;;;;;;;9.94;100.00;95863.69;7407547;19;20384;-74
2023/05/16 00:05:41;;;;;;;8.30;7.40;;;;;;;10.08;100.00;95882.59;7397004;19;20959;-74
2023/05/16 00:08:08;;;;;;;8.90;8.00;;;;;;;9.89;100.00;95866.59;7395385;19;21055;-74
2023/05/16 00:10:36;;;;;;;8.00;7.10;;;;;;;9.67;100.00;95838.00;7396160;19;20436;-74
2023/05/16 00:13:03;;;;;;;8.20;7.60;;;;;;;9.72;100.00;95869.44;7395754;19;20476;-74
2023/05/16 00:15:30;;;;;;;7.77;6.87;;;;;;;9.28;100.00;95850.00;7398936;19;20353;-74
2023/05/16 00:17:59;;;;;;;7.03;6.40;;;;;;;9.44;100.00;95862.19;7396750;19;20356;-74
2023/05/16 00:20:27;;;;;;;7.53;6.70;;;;;;;9.15;100.00;95863.16;7394344;19;20522;-74
2023/05/16 00:22:55;;;;;;;8.40;7.60;;;;;;;8.77;100.00;95834.41;7393537;19;20941;-74
2023/05/16 00:25:22;;;;;;;7.53;6.83;;;;;;;9.12;100.00;95848.00;7393448;19;20908;-74
2023/05/16 00:27:49;;;;;;;7.50;7.00;;;;;;;9.27;100.00;95861.63;7395113;19;20393;-74
2023/05/16 00:30:16;;;;;;;11.93;7.00;;;;;;;9.33;100.00;95861.09;7391809;19;20492;-75
2023/05/16 00:32:43;;;;;;;9.80;6.63;;;;;;;9.31;100.00;95841.41;7394907;19;20810;-74
2023/05/16 00:35:11;;;;;;;7.87;7.17;;;;;;;9.40;100.00;95845.50;7394069;19;20400;-74
2023/05/16 00:37:38;;;;;;;7.70;7.10;;;;;;;9.63;100.00;95868.81;7395328;19;20388;-74
2023/05/16 00:40:06;;;;;;;7.67;6.87;;;;;;;9.28;100.00;95839.44;7393086;19;20952;-74
2023/05/16 00:42:35;;;;;;;8.10;7.50;;;;;;;9.25;100.00;95840.88;7395127;19;20713;-74
2023/05/16 00:45:03;;;;;;;7.77;7.07;;;;;;;9.10;100.00;95852.84;7393785;19;20384;-74
2023/05/16 00:47:30;;;;;;;8.53;7.80;;;;;;;9.38;100.00;95868.81;7394956;19;20814;-74
2023/05/16 00:49:57;;;;;;;7.47;6.87;;;;;;;9.34;100.00;95856.56;7392674;19;20420;-74
2023/05/16 00:52:25;;;;;;;7.33;6.73;;;;;;;9.42;100.00;95874.19;7391711;19;20401;-74
2023/05/16 00:54:52;;;;;;;7.97;6.20;;;;;;;9.13;100.00;95861.97;7394942;19;20373;-74
2023/05/16 00:57:19;;;;;;;8.17;7.47;;;;;;;8.98;100.00;95850.19;7395209;19;20397;-74
2023/05/16 00:59:46;;;;;;;7.37;6.77;;;;;;;8.92;100.00;95875.19;7395312;19;20410;-74
2023/05/16 01:02:13;;;;;;;9.10;8.27;;;;;;;8.76;100.00;95859.25;7396097;19;20380;-74
2023/05/16 01:04:42;;;;;;;7.63;7.03;;;;;;;8.61;100.00;95838.78;7393674;19;20447;-74
2023/05/16 01:07:09;;;;;;;8.27;7.57;;;;;;;8.36;100.00;95864.25;7395906;19;20377;-74
2023/05/16 01:09:37;;;;;;;10.57;7.67;;;;;;;8.57;100.00;95867.66;7396228;19;20445;-74
2023/05/16 01:12:21;;;;;;;7.33;6.80;;;;;;;8.61;100.00;95838.78;7397037;19;20377;-74
2023/05/16 01:14:55;;;;;;;8.80;7.93;;;;;;;8.43;100.00;95863.75;7395366;19;20364;-74
2023/05/16 01:17:30;;;;;;;7.13;6.40;;;;;;;8.57;100.00;95867.66;7395699;19;20344;-74
2023/05/16 01:20:18;;;;;;;10.40;7.87;;;;;;;8.20;100.00;95832.44;7394879;19;20423;-74
2023/05/16 01:22:47;;;;;;;9.23;8.07;;;;;;;7.95;100.00;95802.59;7392776;19;20380;-74
2023/05/16 01:25:31;;;;;;;14.90;8.70;;;;;;;8.36;100.00;95860.84;7395995;19;20476;-74
2023/05/16 01:28:00;;;;;;;8.77;8.10;;;;;;;8.27;100.00;95860.88;7395343;19;20702;-74
2023/05/16 01:30:32;;;;;;;9.67;8.73;;;;;;;8.11;100.00;95863.34;7392718;19;20487;-74
2023/05/16 01:33:00;;;;;;;10.83;9.47;;;;;;;7.89;100.00;95853.91;7395563;19;20483;-74
2023/05/16 01:35:27;;;;;;;9.53;8.63;;;;;;;7.56;100.00;95819.56;7395046;19;20376;-74
2023/05/16 01:38:10;;;;;;;10.60;9.80;;;;;;;7.51;100.00;95840.81;7394942;19;20409;-74
2023/05/16 01:40:45;;;;;;;14.37;10.57;;;;;;;7.56;100.00;95860.91;7394560;19;20377;-74
2023/05/16 01:43:19;;;;;;;9.80;8.80;;;;;;;7.86;100.00;95872.94;7399229;19;20755;-74
2023/05/16 01:45:54;;;;;;;10.70;9.70;;;;;;;7.91;100.00;95867.50;7400968;19;20745;-74
2023/05/16 01:48:29;;;;;;;9.33;8.40;;;;;;;7.91;100.00;95846.44;7401848;19;20364;-74
2023/05/16 01:50:59;;;;;;;9.60;8.80;;;;;;;7.95;100.00;95838.69;7398862;19;20493;-74
2023/05/16 01:53:32;;;;;;;8.83;8.03;;;;;;;8.28;100.00;95862.44;7399140;19;20901;-74
2023/05/16 01:56:01;;;;;;;10.50;9.13;;;;;;;8.24;100.00;95864.94;7402389;19;20448;-74
2023/05/16 01:58:32;;;;;;;9.13;8.40;;;;;;;8.07;100.00;95875.59;7399126;19;20421;-74
2023/05/16 02:01:02;;;;;;;8.80;8.20;;;;;;;8.27;100.00;95869.56;7398991;19;20424;-74
2023/05/16 02:03:30;;;;;;;8.67;7.83;;;;;;;7.83;100.00;95854.41;7396903;19;20405;-74
2023/05/16 02:05:58;;;;;;;9.97;9.17;;;;;;;7.69;100.00;95852.78;7398074;19;20412;-74
2023/05/16 02:08:26;;;;;;;10.30;9.30;;;;;;;7.58;100.00;95861.34;7399989;19;20379;-74
2023/05/16 02:10:53;;;;;;;10.50;9.57;;;;;;;7.92;100.00;95874.31;7396507;19;20424;-74
2023/05/16 02:13:20;;;;;;;11.57;9.70;;;;;;;7.91;100.00;95872.78;7401566;19;20369;-74
2023/05/16 02:15:46;;;;;;;9.70;8.90;;;;;;;7.82;100.00;95839.69;7398162;19;20341;-74
2023/05/16 02:18:13;;;;;;;9.70;8.80;;;;;;;8.03;100.00;95863.41;7399489;19;20437;-74
2023/05/16 02:20:41;;;;;;;9.40;8.60;;;;;;;7.97;100.00;95878.59;7398239;19;20479;-74
2023/05/16 02:23:08;;;;;;;9.20;8.40;;;;;;;7.90;100.00;95863.34;7397439;19;20890;-74
2023/05/16 02:25:35;;;;;;;8.70;7.90;;;;;;;8.03;100.00;95868.69;7399474;19;20893;-74
2023/05/16 02:28:02;;;;;;;10.10;8.37;;;;;;;7.81;100.00;95838.94;7399610;19;20376;-74
2023/05/16 02:30:29;;;;;;;9.90;9.07;;;;;;;8.09;100.00;95870.00;7396426;19;20432;-74
2023/05/16 02:32:56;;;;;;;9.80;8.90;;;;;;;7.77;100.00;95830.13;7400696;19;20414;-74
2023/05/16 02:35:23;;;;;;;9.87;9.17;;;;;;;7.90;100.00;95844.91;7397965;19;20375;-74
2023/05/16 02:37:50;;;;;;;8.80;8.10;;;;;;;7.94;100.00;95863.47;7399080;19;20730;-74
2023/05/16 02:40:17;;;;;;;8.10;7.50;;;;;;;7.71;100.00;95858.47;7396611;19;20498;-74
2023/05/16 02:42:44;;;;;;;9.27;8.37;;;;;;;7.62;100.00;95849.88;7397547;19;20369;-74
2023/05/16 02:45:11;;;;;;;11.10;10.10;;;;;;;7.85;100.00;95874.03;7398840;19;20453;-74
2023/05/16 02:47:38;;;;;;;9.90;9.10;;;;;;;7.65;100.00;95877.41;7399203;19;20376;-74
2023/05/16 02:50:05;;;;;;;9.10;8.40;;;;;;;7.95;100.00;95907.13;7396601;19;20438;-74
2023/05/16 02:52:33;;;;;;;9.37;8.50;;;;;;;7.74;100.00;95872.09;7398481;19;20470;-74
2023/05/16 02:55:00;;;;;;;10.43;9.43;;;;;;;7.98;100.00;95894.06;7397130;19;20457;-74
2023/05/16 02:57:47;;;;;;;9.70;8.70;;;;;;;7.67;100.00;95854.19;7399238;19;20897;-74
2023/05/16 03:00:15;;;;;;;9.80;9.00;;;;;;;7.19;100.00;95868.47;7396765;19;20404;-74
2023/05/16 03:02:44;;;;;;;10.30;9.47;;;;;;;6.87;100.00;95861.19;7396429;19;20373;-74
2023/05/16 03:05:12;;;;;;;12.30;9.50;;;;;;;7.14;100.00;95866.03;7398132;19;20388;-74
2023/05/16 03:07:39;;;;;;;9.50;8.70;;;;;;;7.31;100.00;95849.41;7396380;19;20404;-74
2023/05/16 03:10:06;;;;;;;10.93;9.73;;;;;;;7.58;100.00;95892.91;7397001;19;20759;-74
2023/05/16 03:12:33;;;;;;;13.47;9.53;;;;;;;7.76;100.00;95901.50;7399209;19;20415;-74
2023/05/16 03:15:00;;;;;;;11.10;9.50;;;;;;;7.44;100.00;95853.69;7398024;19;20389;-74
2023/05/16 03:17:28;;;;;;;8.10;7.50;;;;;;;7.65;100.00;95890.56;7395860;19;20405;-74
2023/05/16 03:19:56;;;;;;;10.20;8.50;;;;;;;7.60;100.00;95893.38;7397193;19;20826;-74
2023/05/16 03:22:23;;;;;;;9.53;8.73;;;;;;;7.53;100.00;95898.38;7396763;19;20464;-74
2023/05/16 03:24:50;;;;;;;9.93;8.93;;;;;;;7.49;100.00;95897.47;7397802;19;20463;-74
2023/05/16 03:27:16;;;;;;;9.93;9.10;;;;;;;7.63;100.00;95880.38;7395950;19;20375;-74
2023/05/16 03:29:43;;;;;;;13.67;8.17;;;;;;;7.44;100.00;95843.16;7396917;19;20405;-74
2023/05/16 03:32:10;;;;;;;9.27;7.83;;;;;;;7.18;100.00;95887.19;7396070;19;20372;-75
2023/05/16 03:34:37;;;;;;;9.63;8.83;;;;;;;7.17;100.00;95872.50;7397098;19;20930;-75
2023/05/16 03:37:05;;;;;;;13.07;8.23;;;;;;;7.14;100.00;95899.44;7397196;19;20353;-75
2023/05/16 03:39:32;;;;;;;10.27;9.40;;;;;;;6.75;100.00;95870.47;7396991;19;20376;-75
2023/05/16 03:41:59;;;;;;;10.53;9.57;;;;;;;7.00;100.00;95907.50;7395685;19;20411;-75
2023/05/16 03:44:26;;;;;;;10.50;9.57;;;;;;;7.09;100.00;95874.09;7397181;19;20359;-75
2023/05/16 03:46:54;;;;;;;9.03;8.20;;;;;;;7.26;100.00;95881.94;7395429;19;20710;-76
2023/05/16 03:49:25;;;;;;;9.30;8.40;;;;;;;7.40;100.00;95903.53;7396808;19;20385;-75
2023/05/16 03:51:52;;;;;;;9.27;8.57;;;;;;;7.03;100.00;95902.41;7395603;19;20373;-76
2023/05/16 03:54:19;;;;;;;12.33;11.00;;;;;;;6.90;100.00;95884.19;7397012;19;20724;-76
2023/05/16 03:56:46;;;;;;;9.53;8.73;;;;;;;7.01;100.00;95901.94;7397126;19;20412;-75
2023/05/16 03:59:13;;;;;;;13.10;9.47;;;;;;;7.05;100.00;95894.97;7396972;19;20373;-75
2023/05/16 04:01:40;;;;;;;10.47;9.50;;;;;;;7.19;100.00;95915.03;7395807;19;20385;-75
2023/05/16 04:04:07;;;;;;;10.60;9.80;;;;;;;6.81;100.00;95910.47;7395357;19;20410;-75
2023/05/16 04:06:34;;;;;;;12.53;10.17;;;;;;;6.84;100.00;95923.00;7394196;19;20919;-75
2023/05/16 04:09:01;;;;;;;11.00;10.10;;;;;;;6.55;100.00;95899.25;7397381;19;20440;-75
2023/05/16 04:11:28;;;;;;;11.83;10.73;;;;;;;6.82;100.00;95933.06;7395262;19;20932;-75
2023/05/16 04:13:55;;;;;;;12.40;9.50;;;;;;;6.87;100.00;95917.13;7399046;19;20417;-76
2023/05/16 04:16:22;;;;;;;10.90;9.73;;;;;;;6.93;100.00;95910.59;7395679;19;20405;-75
2023/05/16 04:18:49;;;;;;;10.87;9.87;;;;;;;7.03;100.00;95922.66;7395486;19;20357;-75
2023/05/16 04:21:16;;;;;;;11.27;10.13;;;;;;;7.24;100.00;95939.31;7396066;19;20417;-75
2023/05/16 04:23:43;;;;;;;9.93;9.03;;;;;;;6.99;100.00;95885.72;7393422;19;20422;-76
2023/05/16 04:26:10;;;;;;;10.67;9.77;;;;;;;7.36;100.00;95928.13;7396772;19;20377;-76
2023/05/16 04:28:37;;;;;;;9.87;8.97;;;;;;;7.56;100.00;95935.31;7395357;19;20376;-76
2023/05/16 04:31:04;;;;;;;10.07;9.07;;;;;;;7.36;100.00;95905.25;7391872;19;20428;-75
2023/05/16 04:33:31;;;;;;;11.80;10.70;;;;;;;7.41;100.00;95930.59;7394996;19;20380;-75
2023/05/16 04:35:59;;;;;;;12.47;11.20;;;;;;;7.54;100.00;95947.25;7395683;19;20681;-75
2023/05/16 04:38:25;;;;;;;10.60;9.67;;;;;;;7.16;100.00;95911.19;7394392;19;20432;-75
2023/05/16 04:40:52;;;;;;;10.77;9.80;;;;;;;7.13;100.00;95914.44;7396851;19;20408;-75
2023/05/16 04:43:19;;;;;;;10.70;9.70;;;;;;;7.29;100.00;95935.72;7395780;19;20436;-75
2023/05/16 04:45:47;;;;;;;10.80;9.50;;;;;;;7.33;100.00;95936.63;7395383;19;20423;-75
2023/05/16 04:48:14;;;;;;;12.57;11.43;;;;;;;7.22;100.00;95909.16;7393978;19;20388;-75
2023/05/16 04:50:41;;;;;;;12.93;11.20;;;;;;;7.53;100.00;95932.56;7394230;19;20441;-75
2023/05/16 04:53:08;;;;;;;12.10;10.97;;;;;;;7.19;100.00;95863.22;7393845;19;20373;-75
2023/05/16 04:55:35;;;;;;;14.13;11.53;;;;;;;7.69;100.00;95926.44;7396466;19;20710;-75
2023/05/16 04:58:02;;;;;;;12.07;10.70;;;;;;;7.67;100.00;95923.38;7393210;19;20948;-75
2023/05/16 05:00:29;;;;;;;12.67;11.57;;;;;;;7.33;100.00;95902.44;7393731;19;20428;-75
2023/05/16 05:02:56;;;;;;;15.07;11.33;;;;;;;7.79;100.00;95945.59;7394336;19;20380;-76
2023/05/16 05:05:23;;;;;;;13.93;12.50;;;;;;;7.58;100.00;95917.38;7395160;19;20467;-76
2023/05/16 05:07:50;;;;;;;15.90;11.20;;;;;;;7.85;100.00;95925.91;7393997;19;20372;-76
2023/05/16 05:10:17;;;;;;;12.80;11.57;;;;;;;7.91;100.00;95948.34;7393489;19;20437;-75
2023/05/16 05:12:44;;;;;;;16.30;12.10;;;;;;;7.96;100.00;95924.44;7393001;19;20376;-76
2023/05/16 05:15:12;;;;;;;12.97;11.67;;;;;;;7.87;100.00;95913.97;7394842;19;20952;-76
2023/05/16 05:17:39;;;;;;;12.57;11.27;;;;;;;7.99;100.00;95947.50;7393337;19;20425;-76
2023/05/16 05:20:07;;;;;;;16.63;11.73;;;;;;;7.41;100.00;95891.91;7401423;19;20466;-76
2023/05/16 05:22:34;;;;;;;17.30;12.07;;;;;;;7.94;100.00;95940.56;7400357;19;20393;-76
2023/05/16 05:25:01;;;;;;;12.60;11.30;;;;;;;7.83;100.00;95925.44;7402376;19;20384;-76
2023/05/16 05:27:28;;;;;;;11.50;10.40;;;;;;;8.24;100.00;95935.25;7400535;19;20896;-75
2023/05/16 05:29:55;;;;;;;24.27;10.83;;;;;;;8.53;100.00;95955.53;7402869;19;20424;-76
2023/05/16 05:32:22;;;;;;;13.10;11.33;;;;;;;8.46;100.00;95940.25;7401336;19;20544;-76
2023/05/16 05:34:49;;;;;;;12.70;11.57;;;;;;;8.35;100.00;95928.56;7402471;19;20452;-76
2023/05/16 05:37:16;;;;;;;13.33;11.97;;;;;;;8.76;100.00;95954.13;7400923;19;20743;-76
2023/05/16 05:39:43;;;;;;;14.20;12.70;;;;;;;8.58;100.00;95932.41;7404010;19;20799;-76
2023/05/16 05:42:13;;;;;;;13.83;12.60;;;;;;;8.63;100.00;95933.31;7436716;19;20360;-74
2023/05/16 05:44:40;;;;;;;15.80;14.10;;;;;;;8.46;100.00;95929.72;7435468;19;20377;-75
2023/05/16 05:47:07;;;;;;;12.80;11.40;;;;;;;8.75;100.00;95939.41;7435355;19;20408;-76
2023/05/16 05:49:34;;;;;;;12.63;11.33;;;;;;;8.73;100.00;95919.75;7403851;19;22266;-76
2023/05/16 05:52:02;;;;;;;13.90;11.90;;;;;;;8.93;100.00;95926.81;7400945;19;20384;-76
2023/05/16 05:54:29;;;;;;;13.57;12.00;;;;;;;8.99;100.00;95922.13;7398746;19;20961;-76
2023/05/16 05:56:58;;;;;;;12.93;11.83;;;;;;;9.14;100.00;95947.88;7401657;19;20470;-75
2023/05/16 05:59:25;;;;;;;15.30;12.73;;;;;;;9.27;100.00;95956.59;7396761;19;20408;-76
2023/05/16 06:01:52;;;;;;;14.63;13.07;;;;;;;9.38;100.00;95955.88;7400005;19;20369;-76
2023/05/16 06:04:19;;;;;;;15.07;13.30;;;;;;;9.40;100.00;95951.03;7396886;19;20972;-76
2023/05/16 06:06:47;;;;;;;12.97;11.77;;;;;;;9.39;100.00;95917.81;7399629;19;20415;-76
2023/05/16 06:09:13;;;;;;;15.00;13.60;;;;;;;9.58;100.00;95922.56;7398555;19;20384;-76
2023/05/16 06:11:42;;;;;;;14.03;12.70;;;;;;;10.00;100.00;95948.75;7401468;19;20348;-76
2023/05/16 06:14:09;;;;;;;14.67;13.27;;;;;;;10.05;100.00;95949.31;7399983;19;20770;-76
2023/05/16 06:16:36;;;;;;;14.20;12.90;;;;;;;9.99;100.00;95937.41;7399693;19;20877;-75
2023/05/16 06:19:03;;;;;;;13.90;12.50;;;;;;;10.08;100.00;95946.00;7398107;19;20363;-75
2023/05/16 06:21:30;;;;;;;13.90;12.40;;;;;;;10.19;100.00;95951.59;7399514;19;20417;-75
2023/05/16 06:23:56;;;;;;;14.07;12.77;;;;;;;10.09;100.00;95949.41;7397423;19;20432;-75
2023/05/16 06:26:23;;;;;;;14.97;13.43;;;;;;;9.88;100.00;95933.69;7400035;19;20385;-75
2023/05/16 06:28:50;;;;;;;13.23;12.13;;;;;;;9.75;100.00;95917.09;7397325;19;20377;-75
2023/05/16 06:31:17;;;;;;;17.10;12.17;;;;;;;10.39;100.00;95973.72;7399033;19;20480;-75
2023/05/16 06:33:44;;;;;;;13.37;12.10;;;;;;;10.18;100.00;95954.56;7398042;19;20369;-75
2023/05/16 06:36:11;;;;;;;13.63;12.43;;;;;;;10.65;100.00;95966.16;7399634;19;20376;-75
2023/05/16 06:38:38;;;;;;;14.73;13.30;;;;;;;10.63;100.00;95939.31;7397371;19;20445;-75
2023/05/16 06:41:05;;;;;;;13.00;11.80;;;;;;;10.70;100.00;95949.31;7397916;19;20444;-75
2023/05/16 06:43:32;;;;;;;14.03;12.70;;;;;;;11.05;100.00;95969.88;7398695;19;20349;-75
2023/05/16 06:45:58;;;;;;;13.57;12.33;;;;;;;11.11;100.00;95956.09;7399139;19;20374;-75
2023/05/16 06:48:26;;;;;;;13.20;11.90;;;;;;;11.36;100.00;95951.44;7399837;19;20759;-75
2023/05/16 06:50:53;;;;;;;12.83;11.63;;;;;;;11.27;100.00;95965.94;7397350;19;20792;-75
2023/05/16 06:53:20;;;;;;;12.27;11.00;;;;;;;11.64;100.00;95988.44;7397828;19;20384;-75
2023/05/16 06:55:47;;;;;;;13.87;12.27;;;;;;;11.74;100.00;95960.66;7398795;19;20340;-75
2023/05/16 06:58:14;;;;;;;12.30;11.10;;;;;;;11.95;100.00;95979.00;7397336;19;20369;-76
2023/05/16 07:00:42;;;;;;;15.17;11.17;;;;;;;11.74;100.00;95960.66;7397449;19;20455;-75
2023/05/16 07:03:09;;;;;;;11.70;10.63;;;;;;;11.93;100.00;95973.28;7397032;19;20377;-75
2023/05/16 07:05:36;;;;;;;12.33;11.23;;;;;;;12.07;100.00;95969.06;7399129;19;20409;-75
2023/05/16 07:08:04;;;;;;;11.43;10.33;;;;;;;12.07;100.00;95966.41;7397253;19;20912;-75
2023/05/16 07:10:33;;;;;;;13.80;11.50;;;;;;;12.37;100.00;95965.91;7397851;19;20444;-75
2023/05/16 07:13:00;;;;;;;12.70;11.50;;;;;;;12.76;100.00;95974.69;7397292;19;20392;-75
2023/05/16 07:15:27;;;;;;;15.40;11.00;;;;;;;12.70;100.00;95979.53;7398667;19;20380;-75
2023/05/16 07:17:56;;;;;;;11.43;10.53;;;;;;;12.46;100.00;95982.41;7397694;19;20351;-75
2023/05/16 07:20:24;;;;;;;11.03;10.13;;;;;;;12.65;100.00;95949.84;7399622;19;20937;-75
2023/05/16 07:22:51;;;;;;;11.83;10.60;;;;;;;12.78;100.00;95969.03;7397304;19;20368;-75
2023/05/16 07:25:18;;;;;;;11.93;10.83;;;;;;;12.73;100.00;95986.78;7395817;19;20475;-75
2023/05/16 07:27:45;;;;;;;10.37;9.53;;;;;;;12.76;100.00;95952.72;7396785;19;20798;-75
2023/05/16 07:30:13;;;;;;;10.23;9.27;;;;;;;12.74;100.00;95995.50;7395126;19;20409;-75
2023/05/16 07:32:40;;;;;;;10.17;9.27;;;;;;;13.51;100.00;95992.06;7397301;19;20400;-75
2023/05/16 07:35:08;;;;;;;16.07;10.13;;;;;;;13.49;100.00;95967.75;7395956;19;20688;-75
2023/05/16 07:37:35;;;;;;;8.93;7.83;;;;;;;13.80;100.00;95969.41;7396326;19;20756;-75
2023/05/16 07:40:02;;;;;;;11.20;9.33;;;;;;;14.36;100.00;95987.34;7394261;19;20950;-75
2023/05/16 07:42:30;;;;;;;9.13;8.43;;;;;;;13.97;100.00;95973.47;7397060;19;20389;-75
2023/05/16 07:44:57;;;;;;;8.87;8.07;;;;;;;13.88;100.00;95965.72;7393788;19;20384;-74
2023/05/16 07:47:24;;;;;;;8.33;7.53;;;;;;;13.46;100.00;95963.91;7396932;19;20393;-74
2023/05/16 07:49:51;;;;;;;9.87;8.90;;;;;;;13.43;100.00;95991.16;7394979;19;20410;-74
2023/05/16 07:52:18;;;;;;;10.03;8.93;;;;;;;13.51;100.00;95968.94;7396841;19;20415;-75
2023/05/16 07:54:46;;;;;;;8.60;7.90;;;;;;;14.04;100.00;95998.28;7396578;19;20420;-75
2023/05/16 07:57:14;;;;;;;8.50;7.90;;;;;;;13.62;100.00;95993.00;7398898;19;20352;-75
2023/05/16 07:59:42;;;;;;;9.93;9.03;;;;;;;13.60;100.00;95997.91;7395165;19;20409;-75
2023/05/16 08:02:10;;;;;;;11.03;10.03;;;;;;;13.72;100.00;95986.34;7396991;19;20413;-75
2023/05/16 08:04:37;;;;;;;9.77;8.87;;;;;;;13.90;100.00;96004.13;7394089;19;20811;-74
2023/05/16 08:07:04;;;;;;;9.50;8.60;;;;;;;13.49;100.00;95984.47;7398011;19;20365;-74
2023/05/16 08:09:31;;;;;;;9.63;8.83;;;;;;;13.94;100.00;95990.13;7394922;19;20404;-74
2023/05/16 08:12:02;;;;;;;9.87;8.83;;;;;;;14.13;100.00;96009.41;7397963;19;20402;-74
2023/05/16 08:14:32;;;;;;;8.57;7.90;;;;;;;14.57;100.00;96013.53;7394926;19;20383;-74
2023/05/16 08:17:00;;;;;;;8.30;7.70;;;;;;;14.64;100.00;96013.59;7396459;19;20750;-74
2023/05/16 08:19:28;;;;;;;9.53;8.50;;;;;;;14.19;100.00;95999.25;7396311;19;20834;-75
2023/05/16 08:21:55;;;;;;;9.30;7.87;;;;;;;14.44;100.00;96021.72;7398021;19;20362;-75
2023/05/16 08:24:22;;;;;;;9.33;8.53;;;;;;;14.84;100.00;96014.25;7393899;19;20364;-75
2023/05/16 08:26:49;;;;;;;9.50;8.40;;;;;;;14.75;100.00;96022.50;7397109;19;20371;-75
2023/05/16 08:29:16;;;;;;;9.20;8.50;;;;;;;14.71;100.00;96009.16;7396172;19;20405;-75
2023/05/16 08:31:43;;;;;;;9.27;8.30;;;;;;;14.24;100.00;96011.47;7396185;19;20361;-75
2023/05/16 08:34:10;;;;;;;9.03;7.97;;;;;;;14.92;100.00;96021.97;7394964;19;20376;-75
2023/05/16 08:36:37;;;;;;;8.03;7.40;;;;;;;14.71;100.00;96009.16;7396070;19;20376;-75
2023/05/16 08:39:04;;;;;;;9.97;8.50;;;;;;;15.22;100.00;96005.19;7394600;19;20368;-75
2023/05/16 08:41:32;;;;;;;11.23;7.50;;;;;;;15.13;100.00;96026.78;7394715;19;20440;-75
2023/05/16 08:43:59;;;;;;;8.43;7.63;;;;;;;14.83;100.00;96000.19;7394700;19;20376;-75
2023/05/16 08:46:27;;;;;;;7.47;6.87;;;;;;;14.69;100.00;96002.63;7394719;19;20345;-75
2023/05/16 08:48:59;;;;;;;9.17;8.27;;;;;;;14.46;100.00;96014.13;7394705;19;20372;-75
2023/05/16 08:51:34;;;;;;;8.97;8.17;;;;;;;14.71;100.00;96003.06;7393363;19;20465;-75
2023/05/16 08:54:10;;;;;;;7.13;6.63;;;;;;;14.43;100.00;95998.88;7402762;19;20375;-75
2023/05/16 08:56:39;;;;;;;9.73;7.20;;;;;;;14.53;100.00;96012.69;7402952;19;20381;-75
2023/05/16 08:59:06;;;;;;;7.97;7.30;;;;;;;14.44;100.00;96012.97;7403114;19;20873;-75
2023/05/16 09:01:34;;;;;;;8.33;7.50;;;;;;;14.95;100.00;96021.22;7398523;19;20983;-75
2023/05/16 09:04:04;;;;;;;7.97;7.37;;;;;;;14.52;100.00;96017.25;7402478;19;20360;-76
2023/05/16 09:06:31;;;;;;;9.07;8.17;;;;;;;14.31;100.00;96009.72;7401916;19;20356;-76
2023/05/16 09:08:58;;;;;;;8.23;7.53;;;;;;;14.44;100.00;96029.69;7404620;19;20382;-76
2023/05/16 09:11:25;;;;;;;9.57;8.80;;;;;;;14.52;100.00;96030.53;7398721;19;21021;-76
2023/05/16 09:13:52;;;;;;;9.53;8.73;;;;;;;14.30;100.00;96023.38;7404599;19;20747;-76
2023/05/16 09:16:20;;;;;;;9.03;8.20;;;;;;;14.50;100.00;96016.84;7403602;19;20345;-76
2023/05/16 09:18:56;;;;;;;9.47;8.63;;;;;;;14.74;100.00;96010.31;7401995;19;20344;-76
2023/05/16 09:21:27;;;;;;;11.53;8.53;;;;;;;14.62;100.00;96024.59;7401082;19;20408;-76
2023/05/16 09:23:54;;;;;;;8.33;7.70;;;;;;;14.96;100.00;96038.75;7401156;19;20354;-76
2023/05/16 09:26:21;;;;;;;9.23;7.37;;;;;;;15.70;100.00;96024.75;7401454;19;20389;-75
2023/05/16 09:28:52;;;;;;;9.27;8.30;;;;;;;15.42;100.00;96054.53;7401616;19;20397;-75
2023/05/16 09:31:25;;;;;;;9.47;8.70;;;;;;;15.52;100.00;96037.13;7400649;19;20416;-75
2023/05/16 09:33:55;;;;;;;8.50;7.80;;;;;;;15.51;100.00;96054.25;7400574;19;20376;-75
2023/05/16 09:36:22;;;;;;;9.20;8.47;;;;;;;15.38;100.00;96027.84;7403773;19;20392;-75
2023/05/16 09:38:50;;;;;;;10.03;7.20;;;;;;;15.62;100.00;96047.13;7400092;19;20379;-75
2023/05/16 09:41:17;;;;;;;10.70;8.63;;;;;;;15.71;100.00;96044.94;7400194;19;20428;-75
2023/05/16 09:43:45;;;;;;;7.40;6.80;;;;;;;16.19;100.00;96026.34;7397411;19;20365;-75
2023/05/16 09:46:15;;;;;;;8.57;7.87;;;;;;;16.14;100.00;96037.34;7402276;19;20381;-75
2023/05/16 09:48:46;;;;;;;8.50;7.80;;;;;;;16.40;100.00;96047.81;7400519;19;20364;-75
2023/05/16 09:51:14;;;;;;;9.60;8.80;;;;;;;15.82;100.00;96045.06;7401304;19;20407;-74
2023/05/16 09:53:42;;;;;;;7.40;6.80;;;;;;;15.72;100.00;96037.72;7400357;19;20369;-74
2023/05/16 09:56:11;;;;;;;8.23;7.43;;;;;;;15.99;100.00;96027.69;7398600;19;20380;-73
2023/05/16 09:58:39;;;;;;;8.67;7.80;;;;;;;15.95;100.00;96019.66;7401608;19;20345;-73
2023/05/16 10:01:07;;;;;;;8.87;8.07;;;;;;;15.92;100.00;96037.16;7400394;19;20412;-72
2023/05/16 10:03:39;;;;;;;8.13;7.30;;;;;;;16.13;100.00;96023.22;7399490;19;20417;-73
2023/05/16 10:06:07;;;;;;;8.77;8.03;;;;;;;15.99;100.00;96001.00;7399041;19;20421;-73
2023/05/16 10:08:35;;;;;;;9.33;8.40;;;;;;;16.17;100.00;96021.38;7400446;19;20385;-73
2023/05/16 10:11:05;;;;;;;9.90;8.87;;;;;;;15.99;100.00;96020.44;7397576;19;20537;-73
2023/05/16 10:13:34;;;;;;;9.67;8.87;;;;;;;15.95;100.00;96030.31;7401000;19;20349;-73
2023/05/16 10:16:08;;;;;;;8.10;7.30;;;;;;;15.63;100.00;96024.72;7400787;19;20352;-73
2023/05/16 10:18:37;;;;;;;9.90;8.93;;;;;;;15.26;100.00;96030.75;7401334;19;20790;-73
2023/05/16 10:21:09;;;;;;;11.33;9.43;;;;;;;14.90;100.00;96002.94;7398387;19;20790;-73
2023/05/16 10:23:41;;;;;;;8.70;7.90;;;;;;;14.92;100.00;96029.94;7400447;19;20914;-73
2023/05/16 10:26:10;;;;;;;9.30;8.43;;;;;;;15.34;100.00;96027.00;7399437;19;20372;-73
2023/05/16 10:28:39;;;;;;;7.80;7.20;;;;;;;15.45;100.00;96026.38;7397636;19;20376;-73
2023/05/16 10:31:08;;;;;;;7.87;6.77;;;;;;;15.49;100.00;96030.63;7397767;19;20444;-73
2023/05/16 10:33:35;;;;;;;7.57;6.87;;;;;;;15.57;100.00;96029.56;7397826;19;20345;-73
2023/05/16 10:36:04;;;;;;;7.20;6.70;;;;;;;15.08;100.00;96019.09;7399071;19;20731;-73
2023/05/16 10:38:33;;;;;;;7.50;6.90;;;;;;;14.62;100.00;95991.91;7399674;19;20520;-73
2023/05/16 10:41:00;;;;;;;8.23;7.40;;;;;;;15.07;100.00;96034.31;7397618;19;20412;-73
2023/05/16 10:43:32;;;;;;;7.67;6.97;;;;;;;15.11;100.00;96038.94;7397842;19;20368;-73
2023/05/16 10:46:04;;;;;;;8.80;7.20;;;;;;;15.16;100.00;96043.94;7397384;19;20972;-73
2023/05/16 10:48:36;;;;;;;7.07;6.37;;;;;;;14.81;100.00;96025.59;7400921;19;20368;-73
2023/05/16 10:51:34;;;;;;;8.27;7.20;;;;;;;15.13;100.00;96045.44;7398638;19;20457;-73
2023/05/16 10:54:13;;;;;;;9.63;7.20;;;;;;;15.84;100.00;96038.22;7399659;19;20384;-73
2023/05/16 10:56:42;;;;;;;7.23;6.13;;;;;;;16.36;100.00;96047.03;7398228;19;20390;-73
2023/05/16 10:59:23;;;;;;;6.30;5.80;;;;;;;15.94;100.00;96061.56;7399233;19;20695;-73
2023/05/16 11:01:54;;;;;;;6.33;5.73;;;;;;;16.27;100.00;96059.91;7400092;19;20344;-73
2023/05/16 11:04:22;;;;;;;6.70;6.20;;;;;;;15.77;100.00;96027.50;7396464;19;20393;-73
2023/05/16 11:06:51;;;;;;;7.23;6.73;;;;;;;15.30;100.00;96026.22;7399496;19;20380;-73
2023/05/16 11:09:22;;;;;;;6.90;6.30;;;;;;;16.10;100.00;96055.22;7399041;19;20381;-73
2023/05/16 11:11:52;;;;;;;7.23;6.63;;;;;;;15.65;100.00;96051.75;7398667;19;20924;-73
2023/05/16 11:14:43;;;;;;;7.77;7.07;;;;;;;15.70;100.00;96047.97;7397251;19;20414;-73
2023/05/16 11:17:19;;;;;;;8.03;7.40;;;;;;;15.54;100.00;96051.59;7396589;19;20360;-73
2023/05/16 11:19:51;;;;;;;7.90;7.10;;;;;;;15.92;100.00;96047.84;7398176;19;20387;-73
2023/05/16 11:22:18;;;;;;;7.43;6.83;;;;;;;15.26;100.00;96062.72;7397935;19;20376;-73
2023/05/16 11:24:56;;;;;;;8.87;7.77;;;;;;;15.20;100.00;96039.41;7399344;19;20389;-73
2023/05/16 11:27:35;;;;;;;11.90;8.43;;;;;;;15.34;100.00;96063.53;7422618;19;20364;-73
2023/05/16 11:30:05;;;;;;;8.23;7.53;;;;;;;14.76;100.00;96059.41;7432516;19;20439;-73